Main page
METAR-TAF:

METAR-TAF

Airports :

Aviano, Italy

Aviano Air Base

latitude: 46-02N, longitude: 012-36E, elevation: 128 m

Current weather observation

The report was made 1 hour and 20 minutes ago, at 20:55 UTC
Wind 5 kt from the North/Northeast
Temperature -2°C
Humidity 80%
Pressure 1026 hPa
Visibility 10 km or more
no clouds below 1500 m and no cumulonimbus

METAR: LIPA 182055Z 02005KT CAVOK M02/M05 Q1026 RMK SKC VIS MIN 9999 WIND THR05 /////KT WIND THR23 /////KT A3031 BLU

Time: 23:15 (22:15 UTC)

Forecast

The report was made 2 hours and 15 minutes ago, at 20:00 UTC
Forecast valid from 18 at 21 UTC to 19 at 06 UTC
Wind 3 kt from variable directions
Visibility 10 km or more
no clouds below 1500 m and no cumulonimbus

TAF: LIPA 182000Z 1821/1906 VRB03KT CAVOK

Weather observations and forecasts of more than 4000 airports (METAR and TAF reports).

The available stations are represented by yellow and red dots on the map.

Hover mouse over dot to see the name of the station.

Then click to see weather observations and forecasts.

To change the map : click on the green buttons with a black cross to zoom in, on the green button with a dash to zoom out, or on the green arrows for adjacent maps.


METAR-TAF: